Time;durP1;ratioP1;P1;durP2;ratioP2;P2;SDS_P1;SDS_P2;PMS_P1;PMS_P2;Temp;Humidity;BMP_temperature;BMP_pressure;BME280_temperature;BME280_humidity;BME280_pressure;Samples;Min_cycle;Max_cycle;Signal;HPM_P1;HPM_P2
2023/03/26 00:01:15;;;;;;;14.77;2.55;;;;;;;16.19;44.90;100565.50;4953294;28;20510;-63
2023/03/26 00:03:43;;;;;;;9.50;2.15;;;;;;;16.20;45.72;100559.06;4953731;28;20409;-63
2023/03/26 00:06:11;;;;;;;14.88;2.35;;;;;;;16.18;44.40;100563.81;4954543;28;20503;-63
2023/03/26 00:08:38;;;;;;;13.65;3.28;;;;;;;16.16;45.12;100555.88;4953561;28;20089;-63
2023/03/26 00:11:05;;;;;;;24.20;3.38;;;;;;;16.15;45.92;100556.06;4954316;29;20028;-63
2023/03/26 00:13:32;;;;;;;17.17;2.53;;;;;;;16.11;45.85;100552.84;4937175;28;20035;-63
2023/03/26 00:15:57;;;;;;;14.80;1.80;;;;;;;16.11;44.74;100552.84;4936969;29;20110;-63
2023/03/26 00:18:30;;;;;;;10.73;1.50;;;;;;;16.12;45.05;100553.69;4952886;28;20110;-63
2023/03/26 00:21:00;;;;;;;18.77;2.85;;;;;;;16.12;44.40;100551.84;4953780;28;20513;-63
2023/03/26 00:23:27;;;;;;;10.23;2.22;;;;;;;16.09;45.35;100546.78;4952753;28;20050;-63
2023/03/26 00:25:54;;;;;;;12.80;1.65;;;;;;;16.12;45.88;100542.88;4937115;28;20023;-63
2023/03/26 00:28:20;;;;;;;10.07;1.67;;;;;;;16.13;45.04;100542.72;4936792;28;20115;-63
2023/03/26 00:30:47;;;;;;;20.35;2.22;;;;;;;16.14;44.94;100539.00;4931064;29;20035;-63
2023/03/26 00:33:16;;;;;;;17.73;2.25;;;;;;;16.14;44.26;100532.72;4926792;29;20071;-63
2023/03/26 00:35:45;;;;;;;21.95;2.97;;;;;;;16.14;44.96;100528.19;4941776;28;20392;-63
2023/03/26 00:38:12;;;;;;;12.30;2.20;;;;;;;16.16;46.00;100530.72;4910545;29;20031;-63
2023/03/26 00:40:37;;;;;;;11.50;1.95;;;;;;;16.12;44.47;100529.38;4958143;28;20111;-63
2023/03/26 00:43:17;;;;;;;12.77;2.42;;;;;;;16.09;44.16;100524.31;4941689;28;20114;-64
2023/03/26 00:45:42;;;;;;;14.93;2.22;;;;;;;16.03;44.23;100522.28;4936089;28;20040;-63
2023/03/26 00:48:08;;;;;;;12.80;2.05;;;;;;;15.98;44.39;100516.56;4940866;28;20102;-63
2023/03/26 00:50:33;;;;;;;10.52;1.85;;;;;;;15.93;44.67;100516.25;4943485;28;20465;-64
2023/03/26 00:52:58;;;;;;;18.33;2.97;;;;;;;15.90;44.64;100511.19;4909834;29;20032;-63
2023/03/26 00:55:24;;;;;;;9.38;1.77;;;;;;;15.88;45.99;100511.34;4941110;28;20556;-64
2023/03/26 00:57:49;;;;;;;8.98;2.00;;;;;;;15.87;45.93;100514.22;4942636;28;20051;-64
2023/03/26 01:00:17;;;;;;;17.80;2.58;;;;;;;15.86;44.81;100512.50;4956465;28;20047;-63
2023/03/26 01:02:43;;;;;;;15.80;2.03;;;;;;;15.85;44.86;100505.44;4941348;28;20038;-64
2023/03/26 01:05:33;;;;;;;11.15;1.90;;;;;;;15.83;44.43;100502.09;4926702;29;20372;-63
2023/03/26 01:08:13;;;;;;;10.27;1.85;;;;;;;15.83;44.71;100499.38;4957054;28;20047;-63
2023/03/26 01:10:40;;;;;;;14.50;2.13;;;;;;;15.81;44.35;100487.88;4944560;28;20031;-63
2023/03/26 01:13:07;;;;;;;13.88;2.50;;;;;;;15.79;45.02;100492.63;4926048;28;20032;-63
2023/03/26 01:15:36;;;;;;;8.05;1.13;;;;;;;15.81;45.30;100482.47;4940159;28;20376;-63
2023/03/26 01:18:03;;;;;;;17.67;2.38;;;;;;;15.81;45.40;100487.88;4929581;29;20036;-63
2023/03/26 01:20:29;;;;;;;19.50;2.38;;;;;;;15.83;45.58;100481.28;4936070;28;20041;-63
2023/03/26 01:23:03;;;;;;;11.13;1.75;;;;;;;15.81;44.93;100477.09;4952390;29;20512;-63
2023/03/26 01:25:33;;;;;;;15.48;2.50;;;;;;;15.84;44.83;100480.28;4952152;28;20036;-63
2023/03/26 01:27:59;;;;;;;7.47;1.75;;;;;;;15.81;45.34;100459.03;4952305;28;20082;-63
2023/03/26 01:30:40;;;;;;;8.63;1.83;;;;;;;15.85;45.51;100468.47;4967791;28;20085;-63
2023/03/26 01:33:35;;;;;;;13.25;2.58;;;;;;;15.86;44.80;100474.69;4951694;28;20043;-63
2023/03/26 01:36:15;;;;;;;16.25;2.17;;;;;;;15.85;46.06;100457.69;4936084;28;20039;-63
2023/03/26 01:39:08;;;;;;;7.80;1.58;;;;;;;15.83;44.74;100453.47;4951807;28;20085;-63
2023/03/26 01:41:43;;;;;;;7.72;2.60;;;;;;;15.83;44.52;100450.75;4935420;28;20035;-65
2023/03/26 01:44:27;;;;;;;7.93;1.90;;;;;;;15.83;44.53;100448.88;4952180;29;20023;-63
2023/03/26 01:46:53;;;;;;;16.52;2.95;;;;;;;15.79;44.77;100435.91;4951679;28;20051;-63
2023/03/26 01:49:19;;;;;;;7.55;1.58;;;;;;;15.85;45.66;100451.44;4929200;29;20042;-63
2023/03/26 01:51:46;;;;;;;15.88;1.90;;;;;;;15.88;45.70;100434.88;4948443;28;20057;-63
2023/03/26 01:54:23;;;;;;;7.50;1.65;;;;;;;15.90;45.44;100430.13;4916735;29;20115;-64
2023/03/26 01:56:57;;;;;;;9.95;1.67;;;;;;;15.93;45.75;100427.94;4916409;29;20028;-63
2023/03/26 01:59:48;;;;;;;12.15;1.95;;;;;;;15.98;45.58;100422.84;4932221;28;20499;-63
2023/03/26 02:02:26;;;;;;;7.05;1.92;;;;;;;16.01;46.07;100427.06;4932693;28;20028;-63
2023/03/26 02:04:56;;;;;;;8.07;1.38;;;;;;;16.04;44.52;100418.59;4932248;29;20079;-63
2023/03/26 02:07:41;;;;;;;9.63;1.63;;;;;;;15.98;45.53;100385.03;4932356;28;20441;-63
2023/03/26 02:10:27;;;;;;;9.77;1.10;;;;;;;16.12;45.27;100402.38;4931868;29;20035;-62
2023/03/26 02:12:53;;;;;;;12.55;1.35;;;;;;;16.15;45.75;100396.59;4932104;28;20442;-63
2023/03/26 02:15:19;;;;;;;5.90;1.92;;;;;;;16.19;45.89;100389.84;4916401;28;20035;-63
2023/03/26 02:17:45;;;;;;;4.78;1.10;;;;;;;16.22;45.64;100387.63;4917094;28;20062;-63
2023/03/26 02:20:13;;;;;;;14.00;1.30;;;;;;;16.22;44.79;100386.75;4916667;29;20035;-63
2023/03/26 02:22:39;;;;;;;7.47;1.90;;;;;;;16.21;44.90;100382.41;4932118;28;20036;-63
2023/03/26 02:25:10;;;;;;;11.02;1.85;;;;;;;16.26;45.15;100374.59;4900593;28;20032;-63
2023/03/26 02:27:36;;;;;;;6.95;1.23;;;;;;;16.28;45.54;100369.84;4931942;29;20040;-63
2023/03/26 02:30:07;;;;;;;8.07;1.55;;;;;;;16.32;45.63;100365.78;4915958;29;20036;-63
2023/03/26 02:32:33;;;;;;;3.50;0.82;;;;;;;16.34;45.65;100371.84;4931745;28;20048;-63
2023/03/26 02:35:00;;;;;;;4.40;1.00;;;;;;;16.38;45.54;100367.78;4932350;29;20036;-63
2023/03/26 02:37:25;;;;;;;14.18;1.20;;;;;;;16.41;44.83;100369.28;4900390;28;20035;-63
2023/03/26 02:39:51;;;;;;;2.92;1.08;;;;;;;16.41;44.53;100358.47;4932896;28;20423;-63
2023/03/26 02:42:16;;;;;;;5.53;2.40;;;;;;;16.43;45.62;100362.69;4931933;29;20040;-63
2023/03/26 02:44:42;;;;;;;12.32;1.48;;;;;;;16.44;46.02;100355.41;4915963;28;20505;-63
2023/03/26 02:47:07;;;;;;;7.38;1.00;;;;;;;16.46;45.60;100359.63;4948018;28;20028;-63
2023/03/26 02:49:33;;;;;;;6.85;1.13;;;;;;;16.46;44.62;100354.22;4931713;28;20036;-63
2023/03/26 02:51:59;;;;;;;8.07;1.42;;;;;;;16.47;45.94;100350.47;4932066;28;20430;-64
2023/03/26 02:54:24;;;;;;;4.93;1.55;;;;;;;16.47;45.18;100336.13;4932901;28;20585;-63
2023/03/26 02:56:50;;;;;;;11.60;2.25;;;;;;;16.42;45.55;100342.06;4915806;28;20043;-63
2023/03/26 02:59:16;;;;;;;12.20;2.13;;;;;;;16.40;45.40;100333.28;4931653;28;20032;-63
2023/03/26 03:01:45;;;;;;;7.05;1.00;;;;;;;16.41;46.37;100329.59;4931835;28;20035;-63
2023/03/26 03:04:11;;;;;;;2.10;1.10;;;;;;;16.40;46.40;100319.78;4901075;28;20039;-64
2023/03/26 03:06:37;;;;;;;5.75;1.42;;;;;;;16.41;45.20;100318.78;4932585;28;20044;-63
2023/03/26 03:09:04;;;;;;;7.18;1.98;;;;;;;16.42;45.51;100306.06;4931371;28;20093;-64
2023/03/26 03:11:29;;;;;;;6.80;0.90;;;;;;;16.42;45.86;100306.06;4931462;28;20034;-63
2023/03/26 03:13:55;;;;;;;6.88;1.40;;;;;;;16.45;45.42;100308.41;4931838;29;20043;-63
2023/03/26 03:16:20;;;;;;;9.23;1.50;;;;;;;16.46;45.99;100304.69;4915368;29;20085;-63
2023/03/26 03:18:53;;;;;;;7.32;1.00;;;;;;;16.48;45.01;100306.19;4931454;28;20043;-63
2023/03/26 03:21:19;;;;;;;12.57;2.53;;;;;;;16.48;45.66;100298.09;4932123;29;20032;-63
2023/03/26 03:23:44;;;;;;;7.20;1.35;;;;;;;16.46;45.91;100300.16;4950904;28;20132;-63
2023/03/26 03:26:13;;;;;;;4.95;1.08;;;;;;;16.45;44.96;100289.50;4936304;29;20420;-63
2023/03/26 03:28:38;;;;;;;8.93;1.10;;;;;;;16.44;46.20;100275.16;4918781;28;20034;-63
2023/03/26 03:31:04;;;;;;;11.10;1.63;;;;;;;16.37;46.42;100262.53;4918722;28;20032;-63
2023/03/26 03:33:29;;;;;;;2.70;1.00;;;;;;;16.30;46.21;100252.44;4935411;28;20048;-63
2023/03/26 03:35:54;;;;;;;11.43;1.65;;;;;;;16.23;46.07;100261.44;4934690;28;20503;-63
2023/03/26 03:38:20;;;;;;;4.95;1.13;;;;;;;16.13;46.89;100250.03;4934486;28;20043;-63
2023/03/26 03:40:45;;;;;;;8.15;1.23;;;;;;;16.07;45.66;100245.34;4934821;28;20475;-64
2023/03/26 03:43:10;;;;;;;4.13;1.23;;;;;;;16.00;45.80;100245.22;4902947;28;20039;-63
2023/03/26 03:45:36;;;;;;;5.70;0.95;;;;;;;15.97;45.81;100233.94;4934472;28;20506;-63
2023/03/26 03:48:03;;;;;;;5.32;1.27;;;;;;;15.96;46.03;100240.34;4943519;28;20035;-64
2023/03/26 03:50:30;;;;;;;9.05;1.38;;;;;;;15.95;45.89;100238.66;4934566;28;20031;-63
2023/03/26 03:52:57;;;;;;;6.90;1.95;;;;;;;15.92;47.10;100226.34;4934736;29;20039;-63
2023/03/26 03:55:26;;;;;;;15.65;1.25;;;;;;;15.91;47.31;100229.25;4918509;28;20038;-63
2023/03/26 03:57:52;;;;;;;8.70;1.20;;;;;;;15.89;46.29;100225.84;4918766;29;20051;-63
2023/03/26 04:00:18;;;;;;;6.22;1.92;;;;;;;15.88;45.67;100216.94;4950223;28;20034;-63
2023/03/26 04:02:45;;;;;;;7.60;1.23;;;;;;;15.84;46.72;100206.66;4934156;28;20028;-63
2023/03/26 04:05:10;;;;;;;5.18;1.25;;;;;;;15.85;45.79;100197.53;4934447;29;20032;-63
2023/03/26 04:07:36;;;;;;;8.50;1.20;;;;;;;15.86;46.83;100201.91;4902665;29;20042;-63
2023/03/26 04:10:02;;;;;;;9.75;1.52;;;;;;;15.87;45.76;100195.50;4917985;29;20032;-63
2023/03/26 04:12:29;;;;;;;5.90;0.90;;;;;;;15.88;46.82;100195.34;4918099;29;20060;-64
2023/03/26 04:14:55;;;;;;;3.47;1.10;;;;;;;15.89;45.86;100182.63;4934007;28;20032;-63
2023/03/26 04:17:21;;;;;;;5.80;2.33;;;;;;;15.88;46.97;100173.72;4933882;28;20038;-63
2023/03/26 04:19:49;;;;;;;4.60;1.65;;;;;;;15.92;46.88;100176.88;4918486;28;20034;-63
2023/03/26 04:22:17;;;;;;;7.28;1.00;;;;;;;15.91;46.63;100170.66;4933508;28;20098;-63
2023/03/26 04:24:43;;;;;;;2.15;0.77;;;;;;;15.92;46.94;100160.69;4935521;28;20460;-64
2023/03/26 04:27:12;;;;;;;5.68;1.05;;;;;;;15.92;46.08;100156.13;4920034;28;20521;-64
2023/03/26 04:29:43;;;;;;;3.88;1.35;;;;;;;15.93;46.12;100151.56;4919839;28;20032;-64
2023/03/26 04:32:21;;;;;;;8.13;1.00;;;;;;;15.92;46.46;100150.72;4951839;28;20031;-63
2023/03/26 04:34:47;;;;;;;11.98;1.98;;;;;;;15.93;46.37;100154.25;4934316;28;20044;-63
2023/03/26 04:37:31;;;;;;;12.02;1.48;;;;;;;15.91;46.26;100140.09;4933905;28;20038;-63
2023/03/26 04:39:56;;;;;;;6.85;1.20;;;;;;;15.93;45.90;100146.16;4918302;28;20031;-63
2023/03/26 04:42:22;;;;;;;12.10;1.77;;;;;;;15.92;46.14;100136.38;4933540;29;20530;-64
2023/03/26 04:44:51;;;;;;;10.68;1.48;;;;;;;15.93;46.48;100135.34;4949256;28;20364;-63
2023/03/26 04:47:19;;;;;;;8.15;1.60;;;;;;;15.93;46.12;100127.25;4933410;28;20388;-62
2023/03/26 04:49:46;;;;;;;5.68;1.10;;;;;;;15.94;46.23;100118.13;4902353;28;20118;-63
2023/03/26 04:52:12;;;;;;;9.65;1.90;;;;;;;15.90;46.87;100103.31;4933402;28;20036;-63
2023/03/26 04:54:38;;;;;;;7.35;1.50;;;;;;;15.94;46.42;100110.84;4933293;28;20473;-63
2023/03/26 04:57:08;;;;;;;13.75;1.38;;;;;;;15.95;46.95;100096.34;4917483;28;20038;-63
2023/03/26 04:59:34;;;;;;;7.97;1.10;;;;;;;15.96;45.91;100102.59;4933385;28;20058;-63
2023/03/26 05:02:08;;;;;;;5.25;1.45;;;;;;;15.97;47.15;100090.75;4933580;29;20430;-63
2023/03/26 05:04:35;;;;;;;9.98;1.45;;;;;;;15.96;46.60;100080.97;4934507;28;20039;-63
2023/03/26 05:07:01;;;;;;;7.40;1.20;;;;;;;15.92;47.29;100082.34;4934290;28;20084;-63
2023/03/26 05:09:27;;;;;;;6.20;1.50;;;;;;;15.90;46.63;100079.00;4917247;28;20036;-64
2023/03/26 05:11:52;;;;;;;6.70;1.70;;;;;;;15.86;47.40;100074.97;4949012;28;20093;-63
2023/03/26 05:14:18;;;;;;;8.07;1.40;;;;;;;15.81;47.67;100072.81;4933171;28;20039;-63
2023/03/26 05:16:45;;;;;;;8.35;1.50;;;;;;;15.80;46.97;100078.41;4933409;29;20036;-63
2023/03/26 05:19:11;;;;;;;3.10;1.20;;;;;;;15.78;47.80;100062.38;4917191;28;20060;-63
2023/03/26 05:21:38;;;;;;;11.43;1.30;;;;;;;15.79;47.71;100063.22;4933008;28;20064;-63
2023/03/26 05:24:05;;;;;;;6.10;1.63;;;;;;;15.77;47.54;100060.72;4901857;29;20070;-63
2023/03/26 05:26:31;;;;;;;7.57;1.13;;;;;;;15.77;46.65;100055.31;4917529;28;20031;-64
2023/03/26 05:28:56;;;;;;;11.20;1.90;;;;;;;15.77;46.65;100052.63;4917334;29;20027;-63
2023/03/26 05:31:22;;;;;;;15.35;2.38;;;;;;;15.76;46.64;100058.19;4916929;28;20054;-63
2023/03/26 05:33:47;;;;;;;8.48;1.02;;;;;;;15.73;48.40;100051.28;4932496;28;20040;-63
2023/03/26 05:36:14;;;;;;;9.23;1.25;;;;;;;15.73;47.95;100048.59;4917051;29;20127;-64
2023/03/26 05:38:42;;;;;;;9.63;0.88;;;;;;;15.70;46.91;100044.38;4932757;29;20430;-63
2023/03/26 05:41:08;;;;;;;9.43;1.10;;;;;;;15.68;47.61;100046.44;4917630;28;20517;-63
2023/03/26 05:43:34;;;;;;;7.72;1.35;;;;;;;15.66;47.61;100032.25;4932832;29;20085;-63
2023/03/26 05:46:00;;;;;;;8.60;1.48;;;;;;;15.64;47.33;100031.59;4916841;28;20457;-63
2023/03/26 05:48:25;;;;;;;3.55;1.05;;;;;;;15.63;47.55;100032.63;4917132;28;20078;-63
2023/03/26 05:50:53;;;;;;;5.32;0.88;;;;;;;15.59;48.63;100034.03;4932881;29;20118;-63
2023/03/26 05:53:20;;;;;;;5.47;1.38;;;;;;;15.59;47.54;100023.22;4916949;28;20548;-63
2023/03/26 05:55:56;;;;;;;6.60;1.40;;;;;;;15.61;47.13;100018.47;4917773;29;20028;-64
2023/03/26 05:58:32;;;;;;;5.43;1.33;;;;;;;15.62;48.57;100019.31;4918153;28;20036;-63
2023/03/26 06:01:01;;;;;;;4.75;1.02;;;;;;;15.65;47.23;100022.50;4932654;28;20056;-63
2023/03/26 06:03:27;;;;;;;10.60;1.23;;;;;;;15.67;48.33;100011.50;4917182;29;20036;-64
2023/03/26 06:05:52;;;;;;;4.45;1.25;;;;;;;15.69;48.01;99998.66;4933167;28;20403;-64
2023/03/26 06:08:18;;;;;;;6.05;1.30;;;;;;;15.76;48.43;100004.16;4932834;28;20038;-63
2023/03/26 06:10:44;;;;;;;3.22;1.13;;;;;;;15.76;47.17;99998.78;4949111;28;20505;-63
2023/03/26 06:13:09;;;;;;;7.40;1.13;;;;;;;15.78;47.91;100002.13;4900973;29;20098;-64
2023/03/26 06:15:34;;;;;;;9.85;1.52;;;;;;;15.77;47.56;100005.88;4932556;28;20032;-64
2023/03/26 06:18:00;;;;;;;4.88;0.70;;;;;;;15.72;47.63;100001.84;4916593;29;20111;-63
2023/03/26 06:20:25;;;;;;;2.75;0.73;;;;;;;15.66;47.59;100001.75;4901224;28;20035;-65
2023/03/26 06:22:52;;;;;;;10.32;2.10;;;;;;;15.59;48.04;99998.06;4934892;28;20023;-69
2023/03/26 06:25:17;;;;;;;7.10;0.60;;;;;;;15.48;47.48;100002.06;4918413;29;20042;-70
2023/03/26 06:27:44;;;;;;;4.05;1.42;;;;;;;15.36;48.92;99998.06;4916237;28;20499;-70
2023/03/26 06:30:10;;;;;;;4.43;0.90;;;;;;;15.27;48.25;99985.63;4900644;29;20027;-70
2023/03/26 06:32:36;;;;;;;6.25;1.27;;;;;;;15.22;48.38;99984.50;4931857;28;20539;-70
2023/03/26 06:35:01;;;;;;;4.75;1.00;;;;;;;15.19;48.98;99990.28;4916414;28;20056;-70
2023/03/26 06:37:26;;;;;;;3.25;0.82;;;;;;;15.19;47.89;99992.97;4932046;28;20127;-70
2023/03/26 06:39:52;;;;;;;9.10;1.40;;;;;;;15.17;49.30;99985.03;4916143;29;20047;-70
2023/03/26 06:42:19;;;;;;;2.25;1.13;;;;;;;15.15;49.15;99974.44;4900435;28;20118;-70
2023/03/26 06:44:44;;;;;;;2.67;1.08;;;;;;;15.19;49.12;99985.69;4915825;28;20403;-69
2023/03/26 06:47:10;;;;;;;6.60;1.35;;;;;;;15.19;49.65;99977.59;4900982;28;20090;-69
2023/03/26 06:49:36;;;;;;;8.20;1.13;;;;;;;15.20;48.06;99978.44;4932383;28;20054;-69
2023/03/26 06:52:02;;;;;;;5.28;0.98;;;;;;;15.20;49.00;99978.44;4900755;29;20101;-70
2023/03/26 06:54:28;;;;;;;5.28;0.70;;;;;;;15.19;48.65;99980.31;4916033;28;20063;-69
2023/03/26 06:56:53;;;;;;;5.57;1.15;;;;;;;15.20;48.77;99973.06;4917457;28;20032;-69
2023/03/26 06:59:19;;;;;;;9.80;0.95;;;;;;;15.21;48.96;99972.03;4919002;28;20035;-70
2023/03/26 07:01:44;;;;;;;6.68;1.10;;;;;;;15.19;49.25;99961.41;4919757;28;20042;-69
2023/03/26 07:04:10;;;;;;;7.72;1.40;;;;;;;15.25;48.87;99968.78;4919856;28;20059;-69
2023/03/26 07:06:35;;;;;;;7.65;1.35;;;;;;;15.24;49.04;99967.13;4904440;28;20044;-69
2023/03/26 07:09:02;;;;;;;6.35;1.13;;;;;;;15.23;48.42;99967.31;4935241;28;20043;-69
2023/03/26 07:11:28;;;;;;;2.05;0.98;;;;;;;15.18;49.95;99967.84;4919508;28;20059;-68
2023/03/26 07:13:55;;;;;;;11.38;1.00;;;;;;;15.20;49.67;99963.09;4919512;28;20134;-68
2023/03/26 07:16:21;;;;;;;4.00;0.95;;;;;;;15.15;48.96;99952.88;4950584;28;20051;-68
2023/03/26 07:18:47;;;;;;;10.45;1.00;;;;;;;15.15;48.95;99962.81;4936242;28;20031;-68
2023/03/26 07:21:14;;;;;;;8.18;1.00;;;;;;;15.09;49.17;99952.75;4935836;28;20123;-68
2023/03/26 07:23:40;;;;;;;2.90;0.68;;;;;;;15.04;49.76;99942.50;4919604;28;20027;-69
2023/03/26 07:26:22;;;;;;;9.15;2.00;;;;;;;15.02;48.48;99949.06;4919955;28;20491;-69
2023/03/26 07:28:55;;;;;;;6.78;0.88;;;;;;;15.04;48.80;99949.75;4918399;29;20047;-69
2023/03/26 07:31:33;;;;;;;2.22;1.25;;;;;;;15.01;48.54;99944.72;4917757;29;20036;-69
2023/03/26 07:34:21;;;;;;;12.15;1.13;;;;;;;15.01;49.38;99944.72;4918786;28;20071;-69
2023/03/26 07:36:51;;;;;;;7.55;1.30;;;;;;;15.00;49.91;99937.63;4934594;28;20036;-69
2023/03/26 07:40:00;;;;;;;4.93;0.80;;;;;;;14.98;50.15;99939.66;4934275;28;20534;-68
2023/03/26 07:42:40;;;;;;;3.08;0.80;;;;;;;14.95;49.12;99931.94;4918602;29;20044;-69
2023/03/26 07:45:27;;;;;;;1.90;0.88;;;;;;;14.94;48.69;99938.34;4949689;28;20130;-69
2023/03/26 07:47:54;;;;;;;3.30;0.63;;;;;;;14.85;48.77;99925.94;4953978;28;20041;-69
2023/03/26 07:50:22;;;;;;;1.52;0.65;;;;;;;14.81;49.50;99927.31;4937648;28;20036;-69
2023/03/26 07:52:47;;;;;;;2.92;0.50;;;;;;;14.82;48.76;99920.91;4937816;28;20023;-69
2023/03/26 07:55:14;;;;;;;3.33;0.50;;;;;;;14.81;48.91;99916.53;4953524;28;20494;-68
2023/03/26 07:57:58;;;;;;;3.17;0.70;;;;;;;14.80;49.95;99920.22;4953745;28;20093;-69
2023/03/26 08:00:45;;;;;;;3.17;0.60;;;;;;;14.76;48.98;99919.75;4953278;28;20028;-69
2023/03/26 08:03:38;;;;;;;1.23;0.60;;;;;;;14.77;49.36;99910.63;4937541;28;20110;-69
2023/03/26 08:06:27;;;;;;;0.90;0.50;;;;;;;14.77;48.82;99913.34;4953237;28;20035;-68
2023/03/26 08:09:22;;;;;;;0.95;0.40;;;;;;;14.78;48.44;99909.63;4952776;28;20092;-69
2023/03/26 08:12:11;;;;;;;2.22;0.52;;;;;;;14.77;49.81;99910.63;4937265;29;20418;-68
2023/03/26 08:14:49;;;;;;;4.05;0.98;;;;;;;14.76;49.82;99902.75;4949167;28;20032;-69
2023/03/26 08:17:32;;;;;;;4.13;1.08;;;;;;;14.74;49.60;99899.41;4941508;29;20023;-68
2023/03/26 08:20:01;;;;;;;2.47;0.30;;;;;;;14.70;49.95;99903.47;4942940;29;20046;-69
2023/03/26 08:22:30;;;;;;;2.95;0.55;;;;;;;14.67;50.05;99903.81;4940244;28;20067;-70
2023/03/26 08:25:17;;;;;;;2.38;0.50;;;;;;;14.62;48.99;99901.66;4942873;28;20047;-69
2023/03/26 08:27:48;;;;;;;3.63;0.52;;;;;;;14.56;48.86;99892.44;4999269;28;20037;-68
2023/03/26 08:30:20;;;;;;;3.45;0.70;;;;;;;14.49;49.02;99883.34;4942154;28;20085;-69
2023/03/26 08:33:16;;;;;;;3.70;1.10;;;;;;;14.48;49.46;99886.25;4999338;28;20052;-68
2023/03/26 08:35:43;;;;;;;3.40;0.63;;;;;;;14.44;49.29;99884.91;4942040;28;20047;-68
2023/03/26 08:38:09;;;;;;;3.70;0.73;;;;;;;14.44;49.87;99876.81;4933948;29;20031;-68
2023/03/26 08:40:55;;;;;;;9.05;0.90;;;;;;;14.42;49.48;99873.47;4933855;28;20039;-68
2023/03/26 08:43:39;;;;;;;3.85;0.43;;;;;;;14.40;49.27;99873.66;4935160;28;20040;-68
2023/03/26 08:46:10;;;;;;;2.53;0.73;;;;;;;14.38;50.56;99872.97;4934807;28;20028;-68
2023/03/26 08:48:43;;;;;;;1.33;0.60;;;;;;;14.36;50.30;99875.03;4936390;28;20040;-68
2023/03/26 08:51:12;;;;;;;1.50;0.52;;;;;;;14.31;49.12;99869.31;4917845;28;20036;-68
2023/03/26 08:53:55;;;;;;;2.88;0.88;;;;;;;14.23;49.64;99853.19;4933589;28;20031;-69
2023/03/26 08:56:48;;;;;;;4.68;0.40;;;;;;;14.22;49.65;99854.19;4933265;28;20024;-69
2023/03/26 08:59:36;;;;;;;2.53;0.77;;;;;;;14.22;49.68;99854.19;4934532;28;20032;-69
2023/03/26 09:02:16;;;;;;;1.77;0.50;;;;;;;14.23;49.68;99850.50;4949198;29;20044;-69
2023/03/26 09:04:56;;;;;;;1.65;0.32;;;;;;;14.18;50.38;99839.38;4949017;29;20058;-70
2023/03/26 09:07:59;;;;;;;3.63;0.80;;;;;;;14.22;49.60;99842.56;4934496;28;20431;-70
2023/03/26 09:10:46;;;;;;;1.15;0.55;;;;;;;14.24;49.73;99843.22;4970376;28;20445;-69
2023/03/26 09:13:30;;;;;;;2.15;0.60;;;;;;;14.28;49.31;99841.88;4970572;28;20050;-69
2023/03/26 09:16:14;;;;;;;;;;;;;;;14.31;49.58;99842.38;4970917;28;20537;-69
2023/03/26 09:18:52;;;;;;;2.50;0.80;;;;;;;14.32;49.41;99825.19;4969875;28;19941;-69
2023/03/26 09:22:00;;;;;;;1.70;0.32;;;;;;;14.35;50.89;99830.22;4970556;28;20042;-69
2023/03/26 09:24:59;;;;;;;5.22;0.77;;;;;;;14.40;50.12;99827.88;4989874;28;20169;-69
2023/03/26 09:27:36;;;;;;;0.77;0.50;;;;;;;14.41;50.09;99823.28;4954360;28;20429;-69
2023/03/26 09:30:38;;;;;;;2.90;0.68;;;;;;;14.50;50.75;99817.69;4954942;28;20031;-69
2023/03/26 09:33:37;;;;;;;1.15;0.50;;;;;;;14.55;50.24;99815.28;4971010;28;20088;-68
2023/03/26 09:36:20;;;;;;;1.95;0.55;;;;;;;14.58;49.94;99809.53;4970469;28;20035;-69
2023/03/26 09:39:08;;;;;;;0.50;0.50;;;;;;;14.62;49.61;99810.03;4938397;28;20031;-69
2023/03/26 09:42:23;;;;;;;1.15;1.05;;;;;;;14.65;50.73;99804.28;4954297;28;20027;-68
2023/03/26 09:44:57;;;;;;;3.60;0.70;;;;;;;14.66;50.81;99799.69;4975620;28;20430;-67
2023/03/26 09:47:33;;;;;;;0.85;0.38;;;;;;;14.67;49.88;99802.22;4972951;28;20037;-65
2023/03/26 09:50:17;;;;;;;2.20;0.47;;;;;;;14.70;51.10;99801.03;4940016;28;20035;-67
2023/03/26 09:53:08;;;;;;;3.33;0.50;;;;;;;14.73;49.78;99800.66;4933712;29;20127;-66
2023/03/26 09:55:55;;;;;;;3.13;0.95;;;;;;;14.79;49.61;99794.56;4950344;28;20511;-68
2023/03/26 09:58:55;;;;;;;0.70;0.60;;;;;;;14.83;50.15;99798.53;4933720;28;20031;-65
2023/03/26 10:01:43;;;;;;;1.20;0.68;;;;;;;14.82;49.85;99800.44;4949694;28;20427;-66
2023/03/26 10:04:27;;;;;;;0.85;0.40;;;;;;;14.84;49.48;99803.78;4932251;28;20035;-65
2023/03/26 10:07:15;;;;;;;3.88;0.73;;;;;;;14.84;50.40;99802.94;4932128;28;20039;-65
2023/03/26 10:10:07;;;;;;;0.30;0.30;;;;;;;14.87;51.06;99798.03;4932240;28;20466;-65
2023/03/26 10:12:39;;;;;;;2.05;0.55;;;;;;;14.93;50.26;99796.44;4948074;28;20069;-65
2023/03/26 10:15:25;;;;;;;1.65;0.40;;;;;;;14.98;50.84;99792.19;4932134;28;20028;-65
2023/03/26 10:18:16;;;;;;;2.50;0.70;;;;;;;15.03;50.44;99802.41;4933305;28;20399;-65
2023/03/26 10:20:54;;;;;;;3.50;0.60;;;;;;;15.05;50.24;99801.22;4916310;28;20115;-66
2023/03/26 10:23:32;;;;;;;1.30;0.50;;;;;;;15.08;50.05;99790.06;4931906;28;20032;-66
2023/03/26 10:26:03;;;;;;;1.77;0.60;;;;;;;15.16;50.11;99800.75;4933553;29;20089;-65
2023/03/26 10:28:31;;;;;;;0.57;0.40;;;;;;;15.20;49.73;99795.00;4931964;28;20035;-66
2023/03/26 10:31:14;;;;;;;0.45;0.40;;;;;;;15.21;49.18;99802.94;4931918;28;20043;-65
2023/03/26 10:33:55;;;;;;;2.40;0.55;;;;;;;15.26;49.31;99805.06;4915988;28;20538;-66
2023/03/26 10:36:52;;;;;;;0.98;0.52;;;;;;;15.28;50.75;99806.56;4931805;28;20408;-65
2023/03/26 10:39:27;;;;;;;0.50;0.43;;;;;;;15.30;49.52;99804.50;4940066;28;20055;-65
2023/03/26 10:41:52;;;;;;;0.38;0.32;;;;;;;15.29;50.94;99802.84;4933073;28;20036;-66
2023/03/26 10:44:44;;;;;;;1.25;0.65;;;;;;;15.32;49.87;99801.63;4932023;28;20050;-65
2023/03/26 10:47:20;;;;;;;0.38;0.30;;;;;;;15.33;50.50;99806.81;4933340;29;20036;-65
2023/03/26 10:50:15;;;;;;;2.50;0.40;;;;;;;15.35;50.46;99801.25;4931829;29;20503;-65
2023/03/26 10:53:03;;;;;;;0.85;0.30;;;;;;;15.32;50.02;99807.03;4916086;29;20048;-65
2023/03/26 10:55:46;;;;;;;2.45;0.30;;;;;;;15.32;49.82;99807.88;4916035;28;20031;-64
2023/03/26 10:58:11;;;;;;;0.47;0.45;;;;;;;15.35;49.71;99810.19;4931879;28;20043;-65
2023/03/26 11:00:43;;;;;;;0.52;0.47;;;;;;;15.36;49.98;99809.16;4932009;28;20039;-65
2023/03/26 11:03:34;;;;;;;0.70;0.52;;;;;;;15.33;49.88;99809.53;4916129;28;20031;-66
2023/03/26 11:06:03;;;;;;;1.95;0.30;;;;;;;15.34;50.27;99811.22;4931395;28;20111;-65
2023/03/26 11:09:00;;;;;;;2.17;0.50;;;;;;;15.35;50.72;99810.19;4932887;28;20499;-64
2023/03/26 11:11:44;;;;;;;3.00;0.45;;;;;;;15.35;49.68;99807.50;4933007;28;20035;-62
2023/03/26 11:14:30;;;;;;;0.60;0.20;;;;;;;15.41;49.53;99808.63;4947815;29;20110;-63
2023/03/26 11:17:01;;;;;;;2.65;0.68;;;;;;;15.49;50.81;99814.81;4915741;28;20051;-63
2023/03/26 11:19:35;;;;;;;2.13;0.60;;;;;;;15.56;50.17;99813.03;4915694;28;20043;-63
2023/03/26 11:22:42;;;;;;;3.42;0.40;;;;;;;15.73;49.80;99817.22;4931597;28;20038;-63
2023/03/26 11:25:22;;;;;;;5.25;0.65;;;;;;;15.87;49.33;99822.78;4948707;28;20218;-63
2023/03/26 11:27:54;;;;;;;1.45;0.50;;;;;;;15.98;49.08;99822.31;4931609;28;20046;-64
2023/03/26 11:31:01;;;;;;;2.75;0.70;;;;;;;16.10;49.02;99824.34;4932627;28;20066;-63
2023/03/26 11:33:31;;;;;;;3.80;1.50;;;;;;;16.22;50.33;99830.06;4931699;28;20125;-63
2023/03/26 11:36:01;;;;;;;0.35;0.35;;;;;;;16.30;49.12;99827.28;4915465;28;20039;-65
2023/03/26 11:38:36;;;;;;;4.13;0.73;;;;;;;16.33;49.23;99833.13;4931299;28;20099;-64
2023/03/26 11:41:03;;;;;;;0.75;0.32;;;;;;;16.36;48.76;99834.59;4915689;29;20509;-65
2023/03/26 11:43:32;;;;;;;2.63;0.60;;;;;;;16.38;49.38;99835.28;4901913;28;20118;-65
2023/03/26 11:45:58;;;;;;;0.98;0.80;;;;;;;16.42;49.77;99839.25;4934204;28;20035;-65
2023/03/26 11:48:30;;;;;;;1.10;0.57;;;;;;;16.43;48.94;99840.94;4918587;28;20028;-66
2023/03/26 11:51:01;;;;;;;1.55;0.57;;;;;;;16.41;50.43;99837.59;4935517;28;20055;-65
2023/03/26 11:53:28;;;;;;;0.95;0.47;;;;;;;16.43;50.01;99835.53;4934270;28;20039;-65